Rhayader, United Kingdom
Current Conditions -  °F | °C
As of 10:50 AM on Wednesday 22 Oct 2014 (Local Time) from EGOS Reporting Station
Broken Clouds Broken Clouds  
Wind Chill: 11°   Ceiling: 14000
Heat Index: 11°   Visibility: 6mi
Dew Point:   Wind: 12mph
Humidity: 71%   Direction: 250°WSW
Pressure: 30.24"   Gusts: NA
Location:  52.3°N, 3.51°W
Report Text: EGOS 220950Z 25010KT 9999 FEW020 BKN140 11/06 Q1024 BLU NOSIG
Loading
Personal Weather Stations






























Interactive Weather Map
Tropical Storm Tracking
New forecast layout! Learn more

10-Day Weather Forecast

Advertisements
Track Severe Weather on mobile